createdAt,value
2022-09-16T00:00:29.606Z,3.53
2022-09-16T00:03:00.123Z,3.80
2022-09-16T00:05:29.935Z,3.63
2022-09-16T00:08:00.031Z,3.90
2022-09-16T00:10:29.793Z,4.53
2022-09-16T00:13:03.287Z,3.90
2022-09-16T00:15:33.087Z,4.20
2022-09-16T00:18:03.589Z,4.43
2022-09-16T00:20:33.383Z,4.70
2022-09-16T00:23:03.831Z,4.10
2022-09-16T00:25:35.770Z,5.00
2022-09-16T00:28:08.840Z,5.20
2022-09-16T00:30:38.703Z,5.80
2022-09-16T00:33:09.614Z,4.97
2022-09-16T00:35:39.421Z,4.67
2022-09-16T00:38:09.924Z,4.90
2022-09-16T00:40:47.149Z,4.90
2022-09-16T00:43:21.579Z,5.00
2022-09-16T00:45:57.521Z,5.03
2022-09-16T00:48:30.138Z,4.40
2022-09-16T00:51:03.598Z,4.70
2022-09-16T00:53:43.015Z,4.47
2022-09-16T00:56:16.790Z,4.93
2022-09-16T00:58:54.453Z,5.00
2022-09-16T01:01:24.965Z,4.83
2022-09-16T01:03:58.558Z,5.70
2022-09-16T01:06:29.706Z,5.17
2022-09-16T01:09:00.759Z,5.90
2022-09-16T01:11:30.565Z,4.67
2022-09-16T01:14:17.945Z,4.80
2022-09-16T01:16:53.265Z,5.27
2022-09-16T01:19:37.505Z,4.90
2022-09-16T01:22:23.805Z,5.30
2022-09-16T01:24:59.906Z,5.00
2022-09-16T01:27:40.373Z,4.67
2022-09-16T01:30:38.955Z,5.27
2022-09-16T01:33:15.274Z,5.00
2022-09-16T01:35:57.143Z,5.53
2022-09-16T01:38:40.672Z,5.20
2022-09-16T01:41:16.465Z,4.83
2022-09-16T01:43:55.434Z,4.37
2022-09-16T01:46:35.268Z,5.90
2022-09-16T01:49:16.525Z,5.50
2022-09-16T01:51:53.543Z,5.83
2022-09-16T01:54:30.398Z,6.00
2022-09-16T01:57:04.653Z,6.30
2022-09-16T01:59:43.693Z,5.80
2022-09-16T02:02:21.042Z,6.10
2022-09-16T02:04:54.392Z,6.20
2022-09-16T02:07:27.756Z,7.00
2022-09-16T02:10:01.933Z,7.30
2022-09-16T02:12:36.620Z,5.97
2022-09-16T02:15:11.770Z,5.53
2022-09-16T02:17:50.413Z,5.37
2022-09-16T02:20:25.013Z,5.30
2022-09-16T02:22:58.669Z,5.80
2022-09-16T02:25:30.737Z,5.50
2022-09-16T02:28:05.482Z,5.20
2022-09-16T02:30:36.454Z,5.03
2022-09-16T02:33:12.099Z,5.60
2022-09-16T02:35:43.983Z,5.60
2022-09-16T02:38:17.807Z,5.20
2022-09-16T02:40:53.725Z,4.83
2022-09-16T02:43:23.982Z,4.50
2022-09-16T02:46:02.498Z,4.77
2022-09-16T02:48:45.733Z,5.07
2022-09-16T02:51:25.973Z,5.10
2022-09-16T02:54:00.685Z,5.00
2022-09-16T02:56:37.083Z,5.10
2022-09-16T02:59:11.444Z,4.57
2022-09-16T03:01:44.897Z,4.80
2022-09-16T03:04:20.262Z,4.90
2022-09-16T03:06:50.873Z,5.57
2022-09-16T03:09:24.238Z,4.80
2022-09-16T03:12:08.727Z,5.10
2022-09-16T03:15:14.001Z,5.20
2022-09-16T03:18:10.490Z,6.07
2022-09-16T03:20:54.330Z,5.00
2022-09-16T03:23:34.441Z,5.60
2022-09-16T03:26:12.225Z,4.70
2022-09-16T03:28:50.335Z,5.13
2022-09-16T03:31:26.791Z,5.10
2022-09-16T03:34:02.442Z,5.07
2022-09-16T03:36:38.464Z,5.40
2022-09-16T03:39:09.475Z,5.27
2022-09-16T03:41:39.612Z,5.30
2022-09-16T03:44:10.053Z,5.70
2022-09-16T03:46:40.142Z,5.13
2022-09-16T03:49:11.270Z,5.40
2022-09-16T03:51:43.596Z,5.27
2022-09-16T03:54:13.865Z,5.60
2022-09-16T03:56:43.576Z,5.40
2022-09-16T03:59:14.230Z,4.90
2022-09-16T04:01:44.038Z,5.13
2022-09-16T04:04:15.053Z,5.07
2022-09-16T04:06:47.505Z,5.00
2022-09-16T04:09:18.189Z,5.00
2022-09-16T04:11:48.096Z,5.30
2022-09-16T04:14:18.942Z,5.80
2022-09-16T04:16:49.014Z,5.20
2022-09-16T04:19:18.729Z,5.27
2022-09-16T04:21:50.990Z,4.60
2022-09-16T04:24:21.581Z,4.60
2022-09-16T04:26:51.337Z,5.07
2022-09-16T04:29:21.918Z,5.33
2022-09-16T04:31:51.716Z,4.83
2022-09-16T04:34:22.214Z,5.13
2022-09-16T04:36:54.568Z,5.10
2022-09-16T04:39:24.706Z,5.30
2022-09-16T04:41:54.444Z,4.97
2022-09-16T04:44:24.253Z,4.90
2022-09-16T04:46:54.120Z,4.70
2022-09-16T04:49:24.591Z,5.40
2022-09-16T04:51:56.996Z,5.10
2022-09-16T04:54:27.085Z,5.40
2022-09-16T04:56:57.763Z,5.23
2022-09-16T04:59:28.303Z,4.90
2022-09-16T05:01:58.134Z,5.60
2022-09-16T05:04:28.814Z,5.00
2022-09-16T05:07:01.229Z,5.23
2022-09-16T05:09:31.812Z,5.30
2022-09-16T05:12:01.558Z,5.00
2022-09-16T05:14:32.705Z,4.30
2022-09-16T05:17:02.497Z,4.63
2022-09-16T05:19:32.721Z,4.70
2022-09-16T05:22:07.320Z,4.50
2022-09-16T05:24:39.186Z,5.33
2022-09-16T05:27:09.162Z,5.23
2022-09-16T05:29:39.291Z,5.53
2022-09-16T05:32:09.162Z,5.07
2022-09-16T05:34:38.930Z,3.60
2022-09-16T05:37:11.336Z,5.50
2022-09-16T05:39:41.531Z,5.00
2022-09-16T05:42:12.894Z,5.90
2022-09-16T05:44:43.045Z,4.53
2022-09-16T05:47:12.790Z,4.60
2022-09-16T05:49:43.248Z,5.00
2022-09-16T05:52:16.713Z,5.30
2022-09-16T05:54:46.478Z,5.30
2022-09-16T05:57:16.251Z,5.23
2022-09-16T05:59:46.036Z,5.57
2022-09-16T06:02:18.836Z,5.27
2022-09-16T06:04:49.147Z,5.60
2022-09-16T06:07:21.493Z,4.87
2022-09-16T06:09:51.508Z,4.87
2022-09-16T06:12:21.260Z,5.40
2022-09-16T06:14:51.592Z,4.93
2022-09-16T06:17:21.768Z,4.10
2022-09-16T06:19:51.557Z,4.70
2022-09-16T06:22:24.235Z,4.97
2022-09-16T06:24:54.734Z,4.97
2022-09-16T06:27:24.486Z,5.67
2022-09-16T06:29:54.528Z,6.30
2022-09-16T06:32:24.339Z,5.00
2022-09-16T06:34:55.182Z,5.53
2022-09-16T06:37:27.602Z,6.13
2022-09-16T06:39:57.758Z,4.97
2022-09-16T06:42:28.178Z,6.20
2022-09-16T06:45:04.671Z,5.77
2022-09-16T06:47:35.128Z,6.17
2022-09-16T06:50:05.835Z,5.50
2022-09-16T06:52:38.273Z,4.80
2022-09-16T06:55:08.916Z,4.33
2022-09-16T06:57:38.673Z,4.97
2022-09-16T07:00:10.605Z,5.30
2022-09-16T07:02:40.513Z,4.00
2022-09-16T07:05:12.372Z,5.10
2022-09-16T07:07:44.679Z,4.77
2022-09-16T07:10:16.814Z,4.57
2022-09-16T07:12:46.601Z,3.87
2022-09-16T07:15:17.152Z,4.80
2022-09-16T07:17:46.914Z,3.90
2022-09-16T07:20:17.415Z,4.80
2022-09-16T07:22:53.771Z,3.73
2022-09-16T07:25:23.955Z,4.60
2022-09-16T07:27:53.742Z,3.77
2022-09-16T07:30:23.830Z,3.20
2022-09-16T07:32:53.585Z,3.60
2022-09-16T07:35:24.093Z,3.37
2022-09-16T07:37:56.459Z,3.57
2022-09-16T07:40:29.657Z,3.10
2022-09-16T07:43:00.888Z,3.60
2022-09-16T07:45:30.922Z,3.50
2022-09-16T07:48:00.803Z,3.73
2022-09-16T07:50:30.583Z,3.67
2022-09-16T07:53:03.315Z,3.53
2022-09-16T07:55:33.223Z,2.43
2022-09-16T07:58:03.151Z,3.60
2022-09-16T08:00:32.933Z,3.70
2022-09-16T08:03:02.754Z,4.50
2022-09-16T08:05:32.588Z,4.17
2022-09-16T08:08:05.377Z,3.43
2022-09-16T08:10:37.323Z,2.80
2022-09-16T08:13:09.025Z,2.80
2022-09-16T08:15:39.420Z,2.47
2022-09-16T08:18:09.909Z,2.60
2022-09-16T08:20:40.610Z,2.33
2022-09-16T08:23:14.377Z,3.23
2022-09-16T08:25:44.897Z,3.13
2022-09-16T08:28:19.381Z,2.60
2022-09-16T08:30:52.667Z,2.37
2022-09-16T08:33:25.932Z,2.50
2022-09-16T08:36:02.342Z,2.30
2022-09-16T08:38:41.240Z,2.47
2022-09-16T08:41:25.868Z,1.73
2022-09-16T08:44:05.392Z,2.70
2022-09-16T08:46:40.162Z,2.00
2022-09-16T08:49:20.492Z,2.40
2022-09-16T08:51:50.418Z,2.00
2022-09-16T08:54:30.867Z,2.23
2022-09-16T08:57:03.615Z,1.93
2022-09-16T08:59:38.611Z,2.27
2022-09-16T09:02:29.626Z,2.30
2022-09-16T09:05:00.233Z,2.00
2022-09-16T09:07:40.627Z,2.87
2022-09-16T09:10:24.818Z,1.50
2022-09-16T09:13:02.400Z,2.23
2022-09-16T09:15:44.104Z,1.80
2022-09-16T09:18:33.959Z,1.70
2022-09-16T09:21:19.253Z,1.70
2022-09-16T09:24:06.929Z,1.20
2022-09-16T09:26:51.711Z,0.90
2022-09-16T09:29:49.534Z,1.00
2022-09-16T09:32:26.778Z,0.60
2022-09-16T09:35:09.350Z,1.00
2022-09-16T09:37:53.339Z,0.77
2022-09-16T09:40:34.843Z,1.00
2022-09-16T09:43:13.018Z,0.70
2022-09-16T09:45:47.894Z,1.00
2022-09-16T09:48:24.928Z,1.07
2022-09-16T09:50:56.239Z,1.20
2022-09-16T09:53:29.148Z,0.97
2022-09-16T09:56:07.086Z,0.90
2022-09-16T09:58:45.007Z,0.90
2022-09-16T10:01:16.482Z,1.17
2022-09-16T10:03:46.244Z,0.90
2022-09-16T10:06:16.637Z,0.90
2022-09-16T10:08:50.496Z,1.03
2022-09-16T10:11:22.883Z,0.90
2022-09-16T10:13:57.999Z,1.00
2022-09-16T10:16:31.815Z,0.90
2022-09-16T10:19:05.187Z,1.30
2022-09-16T10:21:46.182Z,2.70
2022-09-16T10:24:33.482Z,1.10
2022-09-16T10:27:05.217Z,1.03
2022-09-16T10:29:38.378Z,1.20
2022-09-16T10:32:12.006Z,1.40
2022-09-16T10:34:44.744Z,1.37
2022-09-16T10:37:20.089Z,1.00
2022-09-16T10:39:55.819Z,0.90
2022-09-16T10:42:27.807Z,1.10
2022-09-16T10:45:07.993Z,1.17
2022-09-16T10:47:39.125Z,0.80
2022-09-16T10:50:10.559Z,1.10
2022-09-16T10:52:46.117Z,0.80
2022-09-16T10:55:26.234Z,0.87
2022-09-16T10:57:57.005Z,1.10
2022-09-16T11:00:35.293Z,0.80
2022-09-16T11:03:32.086Z,0.70
2022-09-16T11:06:14.288Z,0.97
2022-09-16T11:08:59.388Z,0.87
2022-09-16T11:11:42.687Z,1.17
2022-09-16T11:14:20.335Z,1.10
2022-09-16T11:17:11.904Z,1.50
2022-09-16T11:19:50.817Z,1.00
2022-09-16T11:22:31.031Z,0.80
2022-09-16T11:25:32.222Z,0.70
2022-09-16T11:28:16.301Z,1.17
2022-09-16T11:30:56.703Z,1.00
2022-09-16T11:33:36.210Z,1.43
2022-09-16T11:36:23.166Z,1.10
2022-09-16T11:39:04.005Z,0.90
2022-09-16T11:41:41.423Z,1.20
2022-09-16T11:44:44.859Z,1.20
2022-09-16T11:47:28.364Z,1.30
2022-09-16T11:50:24.066Z,0.70
2022-09-16T11:53:13.007Z,1.13
2022-09-16T11:55:52.002Z,1.47
2022-09-16T11:58:30.445Z,1.10
2022-09-16T12:01:06.213Z,1.00
2022-09-16T12:03:44.768Z,0.70
2022-09-16T12:06:21.370Z,0.90
2022-09-16T12:09:00.005Z,0.83
2022-09-16T12:11:36.675Z,0.60
2022-09-16T12:14:16.185Z,1.00
2022-09-16T12:16:52.095Z,1.17
2022-09-16T12:19:25.383Z,1.10
2022-09-16T12:22:04.630Z,1.30
2022-09-16T12:24:39.982Z,0.97
2022-09-16T12:27:16.633Z,0.70
2022-09-16T12:29:53.102Z,1.00
2022-09-16T12:32:27.457Z,1.13
2022-09-16T12:35:04.030Z,1.10
2022-09-16T12:37:42.231Z,1.73
2022-09-16T12:40:19.769Z,0.87
2022-09-16T12:43:23.876Z,1.20
2022-09-16T12:46:28.353Z,0.90
2022-09-16T12:49:46.417Z,0.80
2022-09-16T12:52:29.871Z,0.80
2022-09-16T12:55:34.950Z,1.20
2022-09-16T12:58:31.183Z,1.17
2022-09-16T13:01:13.704Z,0.90
2022-09-16T13:03:47.055Z,0.80
2022-09-16T13:06:25.714Z,0.80
2022-09-16T13:08:56.536Z,0.90
2022-09-16T13:14:25.650Z,0.90
2022-09-16T13:16:58.245Z,1.07
2022-09-16T13:19:41.276Z,0.90
2022-09-16T13:22:28.694Z,1.13
2022-09-16T13:25:06.994Z,0.70
2022-09-16T13:27:41.687Z,0.80
2022-09-16T13:30:29.682Z,0.87
2022-09-16T13:33:25.221Z,0.90
2022-09-16T13:36:20.903Z,0.93
2022-09-16T13:38:52.973Z,1.43
2022-09-16T13:41:33.770Z,0.87
2022-09-16T13:44:27.006Z,0.70
2022-09-16T13:47:17.046Z,0.73
2022-09-16T13:49:51.757Z,0.70
2022-09-16T13:52:24.742Z,1.20
2022-09-16T13:55:12.603Z,1.00
2022-09-16T13:57:55.622Z,0.80
2022-09-16T14:00:32.398Z,0.70
2022-09-16T14:03:30.113Z,0.60
2022-09-16T14:06:27.489Z,0.70
2022-09-16T14:09:04.807Z,0.63
2022-09-16T14:11:42.977Z,0.70
2022-09-16T14:14:36.247Z,0.83
2022-09-16T14:17:16.769Z,1.30
2022-09-16T14:19:51.777Z,0.80
2022-09-16T14:22:25.742Z,0.80
2022-09-16T14:25:06.754Z,0.80
2022-09-16T14:27:44.115Z,0.90
2022-09-16T14:30:19.690Z,0.80
2022-09-16T14:32:51.543Z,1.27
2022-09-16T14:35:27.548Z,1.30
2022-09-16T14:38:03.326Z,0.83
2022-09-16T14:40:33.799Z,0.90
2022-09-16T14:43:05.967Z,0.90
2022-09-16T14:45:40.020Z,1.20
2022-09-16T14:48:12.377Z,0.70
2022-09-16T14:50:48.387Z,0.80
2022-09-16T14:53:35.710Z,0.90
2022-09-16T14:56:07.903Z,0.90
2022-09-16T14:58:39.389Z,0.90
2022-09-16T15:01:14.602Z,0.63
2022-09-16T15:03:50.922Z,0.53
2022-09-16T15:06:25.911Z,0.40
2022-09-16T15:09:00.252Z,0.47
2022-09-16T15:11:47.725Z,0.50
2022-09-16T15:14:19.391Z,0.83
2022-09-16T15:16:53.566Z,0.57
2022-09-16T15:19:26.544Z,0.50
2022-09-16T15:21:59.930Z,0.57
2022-09-16T15:24:33.713Z,0.87
2022-09-16T15:27:05.257Z,0.60
2022-09-16T15:29:38.607Z,0.93
2022-09-16T15:32:22.113Z,1.20
2022-09-16T15:35:03.233Z,0.90
2022-09-16T15:37:37.355Z,0.80
2022-09-16T15:40:27.226Z,0.70
2022-09-16T15:43:06.628Z,1.00
2022-09-16T15:45:36.932Z,0.80
2022-09-16T15:48:14.091Z,0.77
2022-09-16T15:50:47.598Z,0.87
2022-09-16T15:53:23.819Z,1.00
2022-09-16T15:56:04.857Z,0.87
2022-09-16T15:58:43.980Z,0.90
2022-09-16T16:01:20.029Z,1.10
2022-09-16T16:03:57.270Z,0.77
2022-09-16T16:06:47.253Z,0.90
2022-09-16T16:09:44.275Z,1.07
2022-09-16T16:12:16.655Z,1.30
2022-09-16T16:14:48.345Z,1.10
2022-09-16T16:17:20.447Z,0.90
2022-09-16T16:19:52.238Z,1.80
2022-09-16T16:22:22.796Z,1.17
2022-09-16T16:24:55.631Z,0.80
2022-09-16T16:27:25.481Z,1.40
2022-09-16T16:29:55.583Z,1.03
2022-09-16T16:32:25.333Z,0.93
2022-09-16T16:34:58.100Z,0.90
2022-09-16T16:37:45.522Z,0.67
2022-09-16T16:40:19.957Z,1.00
2022-09-16T16:42:49.761Z,0.83
2022-09-16T16:45:20.342Z,1.07
2022-09-16T16:47:50.521Z,1.07
2022-09-16T16:50:20.952Z,1.20
2022-09-16T16:52:53.891Z,1.50
2022-09-16T16:55:26.886Z,1.23
2022-09-16T16:57:56.630Z,1.83
2022-09-16T17:00:28.049Z,1.10
2022-09-16T17:02:57.862Z,0.97
2022-09-16T17:05:28.573Z,1.10
2022-09-16T17:07:58.348Z,1.53
2022-09-16T17:10:31.434Z,1.33
2022-09-16T17:13:01.395Z,1.30
2022-09-16T17:15:31.632Z,1.27
2022-09-16T17:18:01.425Z,1.80
2022-09-16T17:20:31.640Z,1.40
2022-09-16T17:23:01.438Z,1.07
2022-09-16T17:25:34.220Z,1.60
2022-09-16T17:28:04.724Z,1.03
2022-09-16T17:30:34.873Z,1.57
2022-09-16T17:33:04.794Z,2.17
2022-09-16T17:35:35.529Z,1.47
2022-09-16T17:38:07.045Z,1.27
2022-09-16T17:40:40.559Z,1.37
2022-09-16T17:43:10.409Z,1.10
2022-09-16T17:45:40.810Z,1.70
2022-09-16T17:48:10.558Z,1.60
2022-09-16T17:50:41.443Z,1.40
2022-09-16T17:53:11.225Z,1.43
2022-09-16T17:55:44.411Z,1.00
2022-09-16T17:58:15.012Z,1.30
2022-09-16T18:00:45.475Z,1.13
2022-09-16T18:03:16.093Z,1.30
2022-09-16T18:05:46.839Z,1.20
2022-09-16T18:08:16.740Z,1.30
2022-09-16T18:10:55.044Z,1.30
2022-09-16T18:13:24.765Z,0.90
2022-09-16T18:15:55.162Z,0.70
2022-09-16T18:18:25.522Z,1.33
2022-09-16T18:20:57.078Z,1.30
2022-09-16T18:23:28.777Z,1.03
2022-09-16T18:26:07.178Z,1.53
2022-09-16T18:28:58.126Z,1.20
2022-09-16T18:31:29.700Z,0.90
2022-09-16T18:33:59.715Z,1.10
2022-09-16T18:36:32.977Z,0.83
2022-09-16T18:39:02.797Z,1.00
2022-09-16T18:41:39.591Z,1.30
2022-09-16T18:44:13.754Z,1.13
2022-09-16T18:46:43.841Z,1.33
2022-09-16T18:49:16.120Z,1.20
2022-09-16T18:51:51.362Z,1.30
2022-09-16T18:54:25.067Z,1.03
2022-09-16T18:56:59.240Z,1.20
2022-09-16T18:59:31.790Z,1.73
2022-09-16T19:02:03.736Z,1.27
2022-09-16T19:04:35.342Z,1.23
2022-09-16T19:07:08.553Z,1.07
2022-09-16T19:09:39.863Z,1.37
2022-09-16T19:12:14.344Z,1.57
2022-09-16T19:14:44.628Z,1.30
2022-09-16T19:17:14.532Z,1.30
2022-09-16T19:19:44.293Z,1.20
2022-09-16T19:22:14.118Z,1.90
2022-09-16T19:24:44.145Z,1.60
2022-09-16T19:27:16.762Z,1.33
2022-09-16T19:29:46.773Z,1.30
2022-09-16T19:32:16.885Z,1.87
2022-09-16T19:34:46.699Z,2.00
2022-09-16T19:37:16.764Z,1.63
2022-09-16T19:39:46.590Z,1.60
2022-09-16T19:42:19.458Z,1.17
2022-09-16T19:44:49.429Z,1.67
2022-09-16T19:47:19.617Z,1.73
2022-09-16T19:49:49.504Z,1.53
2022-09-16T19:52:19.343Z,1.50
2022-09-16T19:57:40.034Z,1.47
2022-09-16T20:00:16.898Z,1.40
2022-09-16T20:02:48.793Z,1.27
2022-09-16T20:05:18.751Z,1.57
2022-09-16T20:07:49.269Z,1.87
2022-09-16T20:10:19.243Z,1.50
2022-09-16T20:12:58.669Z,1.57
2022-09-16T20:15:29.258Z,1.97
2022-09-16T20:17:59.671Z,1.73
2022-09-16T20:20:29.430Z,1.87
2022-09-16T20:22:59.865Z,2.00
2022-09-16T20:25:29.792Z,2.20
2022-09-16T20:28:02.686Z,2.87
2022-09-16T20:30:32.695Z,2.20
2022-09-16T20:33:03.645Z,2.17
2022-09-16T20:35:36.640Z,2.33
2022-09-16T20:38:07.908Z,2.37
2022-09-16T20:40:38.333Z,2.30
2022-09-16T20:43:11.855Z,2.73
2022-09-16T20:45:42.030Z,2.17
2022-09-16T20:48:12.186Z,2.60
2022-09-16T20:50:42.065Z,2.30
2022-09-16T20:53:14.407Z,1.90
2022-09-16T20:55:44.153Z,2.13
2022-09-16T20:58:17.118Z,1.83
2022-09-16T21:00:46.941Z,2.40
2022-09-16T21:03:17.016Z,1.70
2022-09-16T21:05:46.874Z,1.60
2022-09-16T21:08:16.872Z,2.00
2022-09-16T21:10:46.618Z,1.93
2022-09-16T21:13:19.190Z,2.43
2022-09-16T21:15:58.461Z,2.10
2022-09-16T21:18:30.871Z,2.47
2022-09-16T21:21:05.348Z,2.60
2022-09-16T21:23:37.811Z,3.37
2022-09-16T21:26:09.755Z,2.87
2022-09-16T21:28:43.479Z,2.70
2022-09-16T21:31:16.565Z,3.40
2022-09-16T21:33:49.551Z,2.80
2022-09-16T21:36:19.761Z,3.10
2022-09-16T21:38:49.841Z,2.80
2022-09-16T21:41:21.716Z,2.50
2022-09-16T21:43:55.899Z,2.40
2022-09-16T21:46:30.148Z,2.80
2022-09-16T21:49:02.390Z,1.90
2022-09-16T21:51:35.564Z,3.47
2022-09-16T21:54:06.339Z,3.40
2022-09-16T21:56:39.533Z,3.30
2022-09-16T21:59:12.457Z,2.10
2022-09-16T22:01:43.124Z,3.07
2022-09-16T22:04:15.916Z,3.27
2022-09-16T22:06:46.552Z,2.23
2022-09-16T22:09:16.333Z,2.60
2022-09-16T22:11:46.724Z,3.00
2022-09-16T22:14:20.134Z,3.17
2022-09-16T22:16:50.380Z,3.03
2022-09-16T22:19:21.605Z,2.90
2022-09-16T22:21:53.428Z,2.53
2022-09-16T22:24:23.213Z,2.80
2022-09-16T22:26:54.756Z,2.30
2022-09-16T22:29:27.170Z,2.77
2022-09-16T22:32:02.949Z,2.90
2022-09-16T22:34:32.729Z,2.13
2022-09-16T22:37:03.310Z,2.53
2022-09-16T22:39:33.062Z,3.13
2022-09-16T22:42:03.496Z,3.00
2022-09-16T22:44:36.134Z,2.37
2022-09-16T22:47:06.449Z,2.33
2022-09-16T22:49:36.192Z,2.87
2022-09-16T22:52:06.419Z,2.50
2022-09-16T22:54:36.418Z,2.43
2022-09-16T22:57:07.189Z,2.90
2022-09-16T22:59:39.525Z,2.60
2022-09-16T23:02:09.697Z,2.30
2022-09-16T23:04:39.518Z,2.63
2022-09-16T23:07:10.298Z,2.10
2022-09-16T23:09:40.437Z,2.37
2022-09-16T23:12:11.265Z,2.00
2022-09-16T23:14:43.629Z,1.80
2022-09-16T23:17:13.839Z,1.57
2022-09-16T23:19:43.573Z,2.10
2022-09-16T23:22:13.605Z,1.80
2022-09-16T23:24:43.366Z,1.87
2022-09-16T23:27:13.727Z,2.03
2022-09-16T23:29:46.059Z,1.93
2022-09-16T23:32:16.477Z,1.83
2022-09-16T23:34:46.232Z,1.10
2022-09-16T23:37:16.754Z,0.70
2022-09-16T23:39:46.533Z,0.70
2022-09-16T23:42:17.420Z,0.70
2022-09-16T23:44:49.779Z,0.70
2022-09-16T23:47:20.269Z,0.70
2022-09-16T23:49:50.027Z,0.70
2022-09-16T23:52:20.489Z,0.80
2022-09-16T23:54:50.246Z,0.73
2022-09-16T23:57:20.342Z,1.00
2022-09-16T23:59:52.712Z,0.60
